createdAt,value
2018-11-29T09:18:06.565Z,30
2018-11-29T09:18:38.523Z,30
2018-11-29T09:19:10.504Z,30
2018-11-29T09:19:42.517Z,35
2018-11-29T09:20:14.490Z,35
2018-11-29T09:20:46.489Z,35
2018-11-29T09:21:18.481Z,35
2018-11-29T09:21:50.458Z,35
2018-11-29T09:22:22.428Z,35
2018-11-29T09:22:54.396Z,35
2018-11-29T09:23:26.377Z,35
2018-11-29T09:23:58.373Z,35
2018-11-29T09:24:30.364Z,35
2018-11-29T09:25:02.396Z,35
2018-11-29T09:25:34.367Z,35
2018-11-29T09:26:06.341Z,35
2018-11-29T09:26:38.300Z,35
2018-11-29T09:27:10.291Z,35
2018-11-29T09:27:42.267Z,35
2018-11-29T09:28:14.243Z,35
2018-11-29T09:28:46.216Z,35
2018-11-29T09:29:18.206Z,35
2018-11-29T09:29:50.187Z,35
2018-11-29T09:30:22.182Z,35
2018-11-29T09:30:54.172Z,35
2018-11-29T09:31:26.161Z,35
2018-11-29T09:31:58.138Z,35
2018-11-29T09:32:30.118Z,35
2018-11-29T09:33:02.134Z,35
2018-11-29T09:33:34.109Z,35
2018-11-29T09:34:06.122Z,35
2018-11-29T09:34:38.155Z,35
2018-11-29T09:35:10.140Z,35
2018-11-29T09:35:42.120Z,35
2018-11-29T09:36:14.105Z,35
2018-11-29T09:36:46.075Z,35
2018-11-29T09:37:18.076Z,35
2018-11-29T09:37:50.074Z,35
2018-11-29T09:38:22.056Z,35
2018-11-29T09:38:54.023Z,30
2018-11-29T09:39:26.006Z,30
2018-11-29T09:39:58.107Z,30
2018-11-29T09:40:30.081Z,30
2018-11-29T09:41:02.034Z,35
2018-11-29T09:41:34.040Z,35
2018-11-29T09:42:06.042Z,35
2018-11-29T09:42:38.017Z,35
2018-11-29T09:43:10.004Z,35
2018-11-29T09:43:41.975Z,30
2018-11-29T09:44:14.012Z,30
2018-11-29T09:44:46.004Z,30
2018-11-29T09:45:17.978Z,35
2018-11-29T09:45:49.969Z,35
2018-11-29T09:46:21.945Z,35
2018-11-29T09:46:53.968Z,30
2018-11-29T09:47:26.032Z,30
2018-11-29T09:47:57.990Z,30
2018-11-29T09:48:30.099Z,30
2018-11-29T09:49:02.090Z,30
2018-11-29T09:49:34.062Z,30
2018-11-29T09:50:07.050Z,30
2018-11-29T09:50:39.070Z,30
2018-11-29T09:51:11.394Z,30
2018-11-29T09:51:43.477Z,30
2018-11-29T09:52:15.469Z,30
2018-11-29T09:52:47.519Z,30
2018-11-29T09:53:19.505Z,30
2018-11-29T09:53:51.495Z,30
2018-11-29T09:54:23.502Z,30
2018-11-29T09:54:55.501Z,25
2018-11-29T09:55:27.504Z,25
2018-11-29T09:55:59.491Z,25
2018-11-29T09:56:31.467Z,25
2018-11-29T09:57:03.460Z,30
2018-11-29T09:57:35.450Z,30
2018-11-29T09:58:07.449Z,30
2018-11-29T09:58:39.425Z,30
2018-11-29T09:59:11.427Z,30
2018-11-29T09:59:43.424Z,30
2018-11-29T10:00:15.482Z,30
2018-11-29T10:00:47.496Z,30
2018-11-29T10:01:19.468Z,30
2018-11-29T10:01:51.448Z,30
2018-11-29T10:02:23.502Z,30
2018-11-29T10:02:55.542Z,25
2018-11-29T10:03:27.546Z,25
2018-11-29T10:04:06.463Z,30
2018-11-29T10:04:38.478Z,30
2018-11-29T10:05:10.472Z,30
2018-11-29T10:05:42.488Z,35
2018-11-29T10:06:14.541Z,40
2018-11-29T10:06:46.527Z,45
2018-11-29T10:07:18.542Z,45
2018-11-29T10:07:50.598Z,50
2018-11-29T10:08:27.826Z,50
2018-11-29T10:08:59.869Z,50
2018-11-29T10:09:31.969Z,50
2018-11-29T10:10:04.016Z,50
2018-11-29T10:10:36.078Z,50
2018-11-29T10:11:08.103Z,50
2018-11-29T10:11:40.109Z,50
2018-11-29T10:12:12.179Z,50
2018-11-29T10:12:44.174Z,45
2018-11-29T10:13:16.199Z,45
2018-11-29T10:13:48.284Z,45
2018-11-29T10:14:20.281Z,45
2018-11-29T10:14:52.274Z,45
2018-11-29T10:15:24.310Z,45
2018-11-29T10:15:56.290Z,45
2018-11-29T10:16:28.271Z,45
2018-11-29T10:17:00.286Z,45
2018-11-29T10:17:32.306Z,45
2018-11-29T10:18:04.330Z,45
2018-11-29T10:18:36.328Z,45
2018-11-29T10:19:08.317Z,50
2018-11-29T10:19:40.321Z,50
2018-11-29T10:20:12.336Z,50
2018-11-29T10:20:44.337Z,50
2018-11-29T10:21:16.351Z,50
2018-11-29T10:21:48.347Z,50
2018-11-29T10:22:20.343Z,50
2018-11-29T10:22:52.347Z,50
2018-11-29T10:23:24.400Z,50
2018-11-29T10:23:56.396Z,50
2018-11-29T10:24:28.390Z,50
2018-11-29T10:25:00.384Z,50
2018-11-29T10:25:32.375Z,50
2018-11-29T10:26:04.358Z,50
2018-11-29T10:26:36.348Z,50
2018-11-29T10:27:08.328Z,50
2018-11-29T10:27:40.305Z,50
2018-11-29T10:28:12.286Z,45
2018-11-29T10:28:44.268Z,45
2018-11-29T10:29:16.563Z,45
2018-11-29T10:29:48.572Z,45
2018-11-29T10:30:20.554Z,45
2018-11-29T10:30:52.511Z,45
2018-11-29T10:31:24.952Z,45
2018-11-29T10:31:56.975Z,45
2018-11-29T10:32:28.963Z,45
2018-11-29T10:33:00.948Z,45
2018-11-29T10:33:32.912Z,45
2018-11-29T10:34:04.898Z,45
2018-11-29T10:34:36.875Z,45
2018-11-29T10:35:08.856Z,45
2018-11-29T10:35:40.855Z,45
2018-11-29T10:36:12.839Z,40
2018-11-29T10:36:44.816Z,40
2018-11-29T10:37:16.818Z,40
2018-11-29T10:37:48.799Z,40
2018-11-29T10:38:20.764Z,40
2018-11-29T10:38:52.742Z,40
2018-11-29T10:39:24.701Z,35
2018-11-29T10:39:56.679Z,35
2018-11-29T10:40:28.658Z,35
2018-11-29T10:41:00.712Z,35
2018-11-29T10:41:32.687Z,35
2018-11-29T10:42:04.655Z,35
2018-11-29T10:42:36.645Z,35
2018-11-29T10:43:08.847Z,35
2018-11-29T10:43:40.833Z,30
2018-11-29T10:44:12.834Z,30
2018-11-29T10:44:44.805Z,30
2018-11-29T10:45:16.936Z,30
2018-11-29T10:45:48.928Z,30
2018-11-29T10:46:21.015Z,30
2018-11-29T10:46:53.161Z,30
2018-11-29T10:47:25.167Z,30
2018-11-29T10:47:57.169Z,30
2018-11-29T10:48:29.181Z,30
2018-11-29T10:49:01.159Z,30
2018-11-29T10:49:33.148Z,30
2018-11-29T10:50:05.136Z,30
2018-11-29T10:50:37.155Z,30
2018-11-29T10:51:09.140Z,30
2018-11-29T10:51:41.121Z,30
2018-11-29T10:52:13.095Z,30
2018-11-29T10:52:45.100Z,30
2018-11-29T10:53:17.103Z,30
2018-11-29T10:53:49.105Z,35
2018-11-29T10:54:21.203Z,35
2018-11-29T10:54:53.357Z,35
2018-11-29T10:55:25.333Z,40
2018-11-29T10:55:57.329Z,40
2018-11-29T10:56:32.570Z,45
2018-11-29T10:57:04.643Z,45
2018-11-29T10:57:36.716Z,45
2018-11-29T10:58:08.772Z,45
2018-11-29T10:58:40.795Z,45
2018-11-29T10:59:12.770Z,45
2018-11-29T10:59:44.762Z,45
2018-11-29T11:00:16.742Z,45
2018-11-29T11:00:48.734Z,45
2018-11-29T11:01:20.801Z,45
2018-11-29T11:01:52.816Z,40
2018-11-29T11:02:24.795Z,40
2018-11-29T11:02:56.963Z,40
2018-11-29T11:03:28.954Z,40
2018-11-29T11:04:00.924Z,40
2018-11-29T11:04:32.910Z,40
2018-11-29T11:05:04.879Z,40
2018-11-29T11:05:36.880Z,40
2018-11-29T11:06:08.864Z,40
2018-11-29T11:06:40.833Z,40
2018-11-29T11:07:13.029Z,40
2018-11-29T11:07:45.023Z,40
2018-11-29T11:08:17.710Z,40
2018-11-29T11:08:49.710Z,40
2018-11-29T11:09:21.674Z,40
2018-11-29T11:09:53.677Z,40
2018-11-29T11:10:25.660Z,40
2018-11-29T11:10:57.640Z,40
2018-11-29T11:11:29.615Z,40
2018-11-29T11:12:01.610Z,40
2018-11-29T11:12:33.597Z,40
2018-11-29T11:13:05.611Z,35
2018-11-29T11:13:37.601Z,35
2018-11-29T11:14:09.577Z,35
2018-11-29T11:14:41.568Z,35
2018-11-29T11:15:13.540Z,35
2018-11-29T11:15:45.546Z,35
2018-11-29T11:16:17.623Z,35
2018-11-29T11:16:49.608Z,35
2018-11-29T11:17:21.608Z,35
2018-11-29T11:17:53.607Z,35
2018-11-29T11:18:25.611Z,35
2018-11-29T11:18:57.597Z,35
2018-11-29T11:19:29.568Z,35
2018-11-29T11:20:01.582Z,35
2018-11-29T11:20:33.629Z,35
2018-11-29T11:21:05.631Z,35
2018-11-29T11:21:37.610Z,35
2018-11-29T11:22:09.642Z,35
2018-11-29T11:22:41.621Z,35
2018-11-29T11:23:13.621Z,35
2018-11-29T11:23:45.619Z,35
2018-11-29T11:24:17.602Z,35
2018-11-29T11:24:49.624Z,35
2018-11-29T11:25:21.572Z,40
2018-11-29T11:25:53.548Z,40
2018-11-29T11:26:25.546Z,40
2018-11-29T11:26:57.535Z,40
2018-11-29T11:27:29.915Z,40
2018-11-29T11:28:01.953Z,40
2018-11-29T11:28:33.950Z,40
2018-11-29T11:29:05.928Z,40
2018-11-29T11:29:37.913Z,40
2018-11-29T11:30:09.918Z,40
2018-11-29T11:30:41.962Z,40
2018-11-29T11:31:13.981Z,40
2018-11-29T11:31:46.111Z,40
2018-11-29T11:32:19.341Z,40
2018-11-29T11:32:51.343Z,40
2018-11-29T11:33:23.387Z,45
2018-11-29T11:33:55.393Z,45
2018-11-29T11:34:27.408Z,50
2018-11-29T11:34:59.439Z,50
2018-11-29T11:35:31.417Z,50
2018-11-29T11:36:03.430Z,50
2018-11-29T11:36:35.418Z,50
2018-11-29T11:37:07.407Z,50
2018-11-29T11:37:39.522Z,50
2018-11-29T11:38:11.507Z,50
2018-11-29T11:38:43.511Z,50
2018-11-29T11:39:15.524Z,50
2018-11-29T11:39:47.500Z,50
2018-11-29T11:40:19.536Z,50
2018-11-29T11:40:51.566Z,45
2018-11-29T11:41:23.694Z,45
2018-11-29T11:41:56.332Z,45
2018-11-29T11:42:28.468Z,45
2018-11-29T11:43:05.826Z,45
2018-11-29T11:43:37.934Z,45
2018-11-29T11:44:09.985Z,40
2018-11-29T11:44:41.991Z,40
2018-11-29T11:45:13.984Z,40
2018-11-29T11:45:46.351Z,40
2018-11-29T11:46:18.455Z,40
2018-11-29T11:46:50.602Z,40
2018-11-29T11:47:22.595Z,40
2018-11-29T11:47:54.596Z,40
2018-11-29T11:48:26.604Z,40
2018-11-29T11:48:58.589Z,40
2018-11-29T11:49:30.563Z,40
2018-11-29T11:50:02.565Z,40
2018-11-29T11:50:34.577Z,40
2018-11-29T11:51:06.577Z,40
2018-11-29T11:51:38.571Z,40
2018-11-29T11:52:11.606Z,40
2018-11-29T11:52:43.653Z,40
2018-11-29T11:53:15.638Z,40
2018-11-29T11:53:47.649Z,40
2018-11-29T11:54:19.626Z,35
2018-11-29T11:54:51.631Z,35
2018-11-29T11:55:30.945Z,35
2018-11-29T11:56:02.937Z,35
2018-11-29T11:56:34.957Z,35
2018-11-29T11:57:09.248Z,35
2018-11-29T11:57:41.396Z,35
2018-11-29T11:58:13.429Z,35
2018-11-29T11:58:45.629Z,35
2018-11-29T11:59:17.627Z,35
2018-11-29T11:59:49.631Z,35
2018-11-29T12:00:21.721Z,35
2018-11-29T12:00:53.734Z,35
2018-11-29T12:01:25.728Z,35
2018-11-29T12:01:57.723Z,35
2018-11-29T12:02:29.950Z,35
2018-11-29T12:03:01.946Z,35
2018-11-29T12:03:33.927Z,35
2018-11-29T12:04:05.939Z,35
2018-11-29T12:04:37.958Z,35
2018-11-29T12:05:09.944Z,35
2018-11-29T12:05:41.934Z,35
2018-11-29T12:06:13.963Z,35
2018-11-29T12:06:45.970Z,35
2018-11-29T12:07:17.993Z,35
2018-11-29T12:07:50.311Z,35
2018-11-29T12:08:22.300Z,35
2018-11-29T12:08:54.289Z,35
2018-11-29T12:09:26.304Z,35
2018-11-29T12:10:00.680Z,35
2018-11-29T12:10:32.690Z,35
2018-11-29T12:11:04.706Z,35
2018-11-29T12:11:36.771Z,35
2018-11-29T12:12:08.763Z,35
2018-11-29T12:12:40.746Z,35
2018-11-29T12:13:12.719Z,35
2018-11-29T12:13:44.704Z,35
2018-11-29T12:14:16.735Z,35
2018-11-29T12:14:48.741Z,35
2018-11-29T12:15:20.722Z,40
2018-11-29T12:15:53.434Z,35
2018-11-29T12:16:25.435Z,35
2018-11-29T12:16:57.424Z,35
2018-11-29T12:17:29.403Z,40
2018-11-29T12:18:01.389Z,40
2018-11-29T12:18:33.362Z,40
2018-11-29T12:19:05.322Z,40
2018-11-29T12:19:37.291Z,40
2018-11-29T12:20:09.280Z,40
2018-11-29T12:20:41.268Z,45
2018-11-29T12:21:13.237Z,45
2018-11-29T12:21:45.240Z,45
2018-11-29T12:22:17.240Z,45
2018-11-29T12:22:49.229Z,45
2018-11-29T12:23:21.209Z,45
2018-11-29T12:23:53.173Z,50
2018-11-29T12:24:25.152Z,50
2018-11-29T12:24:57.139Z,50
2018-11-29T12:25:29.112Z,50
2018-11-29T12:26:01.080Z,50
2018-11-29T12:26:33.064Z,50
2018-11-29T12:27:05.041Z,50
2018-11-29T12:27:37.011Z,50
2018-11-29T12:28:09.011Z,50
2018-11-29T12:28:41.020Z,50
2018-11-29T12:29:13.005Z,45
2018-11-29T12:29:44.984Z,45
2018-11-29T12:30:16.956Z,45
2018-11-29T12:30:48.925Z,45
2018-11-29T12:31:20.896Z,45
2018-11-29T12:31:53.613Z,45
2018-11-29T12:32:25.602Z,45
2018-11-29T12:32:58.504Z,40
2018-11-29T12:33:30.482Z,40
2018-11-29T12:34:02.453Z,40
2018-11-29T12:34:34.471Z,40
2018-11-29T12:35:06.425Z,40
2018-11-29T12:35:38.410Z,40
2018-11-29T12:36:10.466Z,40
2018-11-29T12:36:42.450Z,40
2018-11-29T12:37:14.396Z,40
2018-11-29T12:37:46.380Z,40
2018-11-29T12:38:18.368Z,40
2018-11-29T12:38:50.339Z,40
2018-11-29T12:39:22.340Z,40
2018-11-29T12:39:54.319Z,35
2018-11-29T12:40:26.288Z,35
2018-11-29T12:40:58.336Z,35
2018-11-29T12:41:30.328Z,35
2018-11-29T12:42:02.357Z,35
2018-11-29T12:42:34.354Z,35
2018-11-29T12:43:06.370Z,35
2018-11-29T12:43:38.360Z,30
2018-11-29T12:44:10.374Z,30
2018-11-29T12:44:42.360Z,30
2018-11-29T12:45:14.333Z,30
2018-11-29T12:45:46.305Z,30
2018-11-29T12:46:18.284Z,30
2018-11-29T12:46:50.262Z,30
2018-11-29T12:47:22.229Z,30
2018-11-29T12:47:54.222Z,25
2018-11-29T12:48:26.216Z,25
2018-11-29T12:48:58.176Z,25
2018-11-29T12:49:30.143Z,25
2018-11-29T12:50:02.119Z,25
2018-11-29T12:50:34.147Z,25
2018-11-29T12:51:06.125Z,25
2018-11-29T12:51:38.113Z,25
2018-11-29T12:52:10.102Z,25
2018-11-29T12:52:42.093Z,25
2018-11-29T12:53:14.059Z,25
2018-11-29T12:53:46.034Z,25
2018-11-29T12:54:18.015Z,25
2018-11-29T12:54:49.989Z,25
2018-11-29T12:55:21.987Z,25
2018-11-29T12:55:53.986Z,25
2018-11-29T12:56:25.968Z,25
2018-11-29T12:56:57.964Z,25
2018-11-29T12:57:29.946Z,25
2018-11-29T12:58:09.085Z,25
2018-11-29T12:58:41.130Z,25
2018-11-29T12:59:13.104Z,25
2018-11-29T12:59:45.083Z,25
2018-11-29T13:00:17.064Z,25
2018-11-29T13:00:49.038Z,25
2018-11-29T13:01:21.035Z,25
2018-11-29T13:01:53.038Z,25
2018-11-29T13:02:25.029Z,25
2018-11-29T13:02:57.012Z,25
2018-11-29T13:03:29.009Z,20
2018-11-29T13:04:00.995Z,20
2018-11-29T13:04:33.893Z,20
2018-11-29T13:05:05.887Z,20
2018-11-29T13:05:37.845Z,20
2018-11-29T13:06:09.814Z,20
2018-11-29T13:06:41.769Z,20
2018-11-29T13:07:13.737Z,20
2018-11-29T13:07:45.705Z,20
2018-11-29T13:08:17.670Z,15
2018-11-29T13:08:49.653Z,15
2018-11-29T13:09:21.652Z,15
2018-11-29T13:09:53.628Z,10
2018-11-29T13:10:25.657Z,10
2018-11-29T13:10:57.647Z,10
2018-11-29T13:11:29.812Z,10
2018-11-29T13:12:01.816Z,10
2018-11-29T13:12:33.794Z,10
2018-11-29T13:13:05.769Z,10
2018-11-29T13:13:37.752Z,10
2018-11-29T13:14:10.256Z,10
2018-11-29T13:14:42.300Z,10
2018-11-29T13:15:14.975Z,10
2018-11-29T13:15:47.275Z,10
2018-11-29T13:16:19.257Z,10
2018-11-29T13:16:51.248Z,10
2018-11-29T13:17:23.212Z,15
2018-11-29T13:17:55.215Z,15
2018-11-29T13:18:27.211Z,15
2018-11-29T13:18:59.224Z,15
2018-11-29T13:19:31.376Z,15
2018-11-29T13:20:03.379Z,15
2018-11-29T13:20:35.358Z,15
2018-11-29T13:21:07.337Z,15
2018-11-29T13:21:39.317Z,15
2018-11-29T13:22:11.276Z,15
2018-11-29T13:22:43.299Z,15
2018-11-29T13:23:15.297Z,15
2018-11-29T13:23:47.343Z,15
2018-11-29T13:24:19.328Z,10
2018-11-29T13:24:51.321Z,10
2018-11-29T13:25:23.318Z,10
2018-11-29T13:25:55.302Z,10
2018-11-29T13:26:27.285Z,10
2018-11-29T13:26:59.268Z,10
2018-11-29T13:27:31.260Z,10
2018-11-29T13:28:03.356Z,10
2018-11-29T13:28:35.349Z,10
2018-11-29T13:29:07.327Z,10
2018-11-29T13:29:39.312Z,10
2018-11-29T13:30:11.293Z,10
2018-11-29T13:30:43.274Z,10
2018-11-29T13:31:15.312Z,10
2018-11-29T13:31:47.288Z,10
2018-11-29T13:32:19.291Z,10
2018-11-29T13:32:51.269Z,15
2018-11-29T13:33:23.258Z,15
2018-11-29T13:33:55.227Z,15
2018-11-29T13:34:27.233Z,15
2018-11-29T13:34:59.221Z,15
2018-11-29T13:35:31.213Z,15
2018-11-29T13:36:03.223Z,15
2018-11-29T13:36:35.212Z,15
2018-11-29T13:37:07.220Z,15
2018-11-29T13:37:39.213Z,15
2018-11-29T13:38:11.235Z,15
2018-11-29T13:38:43.203Z,15
2018-11-29T13:39:15.181Z,15
2018-11-29T13:39:47.331Z,15
2018-11-29T13:40:19.351Z,15
2018-11-29T13:40:52.803Z,15
2018-11-29T13:41:24.788Z,15
2018-11-29T13:41:56.793Z,15
2018-11-29T13:42:28.778Z,15
2018-11-29T13:43:00.772Z,15
2018-11-29T13:43:32.815Z,10
2018-11-29T13:44:04.889Z,10
2018-11-29T13:44:36.904Z,10
2018-11-29T13:45:08.877Z,10
2018-11-29T13:45:40.870Z,10
2018-11-29T13:46:12.879Z,10
2018-11-29T13:46:44.870Z,10
2018-11-29T13:47:16.920Z,10
2018-11-29T13:47:48.934Z,10
2018-11-29T13:48:20.918Z,10
2018-11-29T13:48:52.927Z,10
2018-11-29T13:49:24.908Z,10
2018-11-29T13:49:56.973Z,10
2018-11-29T13:50:29.070Z,10
2018-11-29T13:51:01.050Z,10
2018-11-29T13:51:33.026Z,10
2018-11-29T13:52:05.435Z,10
2018-11-29T13:52:37.479Z,10
2018-11-29T13:53:09.482Z,10
2018-11-29T13:53:41.483Z,10
2018-11-29T13:54:13.466Z,10
2018-11-29T13:54:45.432Z,10
2018-11-29T13:55:17.761Z,10
2018-11-29T13:55:49.770Z,10
2018-11-29T13:56:21.789Z,10
2018-11-29T13:56:53.800Z,10
2018-11-29T13:57:25.823Z,10
2018-11-29T13:57:57.852Z,10
2018-11-29T13:58:29.843Z,10
2018-11-29T13:59:02.253Z,10
2018-11-29T13:59:34.333Z,10
2018-11-29T14:00:06.310Z,10
2018-11-29T14:00:38.292Z,10
2018-11-29T14:01:10.266Z,10
2018-11-29T14:01:42.265Z,10
2018-11-29T14:02:14.257Z,10
2018-11-29T14:02:48.813Z,10
2018-11-29T14:03:20.789Z,5
2018-11-29T14:03:52.754Z,5
2018-11-29T14:04:24.748Z,5
2018-11-29T14:04:56.745Z,5
2018-11-29T14:05:28.723Z,5
2018-11-29T14:06:00.683Z,5
2018-11-29T14:06:32.648Z,5
2018-11-29T14:07:04.636Z,5
2018-11-29T14:07:37.417Z,5
2018-11-29T14:08:09.483Z,5
2018-11-29T14:08:41.621Z,5
2018-11-29T14:09:13.713Z,5
2018-11-29T14:09:45.682Z,5
2018-11-29T14:10:17.753Z,5
2018-11-29T14:10:49.837Z,5
2018-11-29T14:11:21.828Z,5
2018-11-29T14:11:53.817Z,5
2018-11-29T14:12:25.780Z,5
2018-11-29T14:12:57.777Z,5
2018-11-29T14:13:29.775Z,5
2018-11-29T14:14:01.740Z,5
2018-11-29T14:14:33.841Z,5
2018-11-29T14:15:05.862Z,5
2018-11-29T14:15:37.846Z,5
2018-11-29T14:16:09.834Z,5
2018-11-29T14:16:41.927Z,5
2018-11-29T14:17:14.029Z,5
2018-11-29T14:17:46.003Z,5
2018-11-29T14:18:17.976Z,5
2018-11-29T14:18:49.961Z,5
2018-11-29T14:19:22.064Z,5
2018-11-29T14:19:54.067Z,5
2018-11-29T14:20:26.042Z,5
2018-11-29T14:20:58.005Z,5
2018-11-29T14:21:30.127Z,5
2018-11-29T14:22:02.102Z,5
2018-11-29T14:22:34.066Z,5
2018-11-29T14:23:06.036Z,5
2018-11-29T14:23:38.056Z,5
2018-11-29T14:24:10.012Z,5
2018-11-29T14:24:41.970Z,5
2018-11-29T14:25:14.208Z,5
2018-11-29T14:25:46.173Z,5
2018-11-29T14:26:18.148Z,5
2018-11-29T14:26:50.135Z,5
2018-11-29T14:27:22.087Z,5
2018-11-29T14:27:54.226Z,5
2018-11-29T14:28:26.220Z,5
2018-11-29T14:28:58.357Z,5
2018-11-29T14:29:30.371Z,5
2018-11-29T14:30:02.365Z,5
2018-11-29T14:30:34.351Z,5
2018-11-29T14:31:06.340Z,5
2018-11-29T14:31:38.343Z,5
2018-11-29T14:32:11.292Z,5
2018-11-29T14:32:43.341Z,5
2018-11-29T14:33:15.322Z,0
2018-11-29T14:33:47.466Z,0
2018-11-29T14:34:19.473Z,0
2018-11-29T14:34:53.597Z,0
2018-11-29T14:35:25.551Z,0
2018-11-29T14:35:57.564Z,0
2018-11-29T14:36:29.548Z,0
2018-11-29T14:37:01.523Z,0
2018-11-29T14:37:33.497Z,0
2018-11-29T14:38:05.464Z,0
2018-11-29T14:38:37.435Z,0
2018-11-29T14:39:09.459Z,0
2018-11-29T14:39:41.442Z,0
2018-11-29T14:40:13.424Z,0
2018-11-29T14:40:45.404Z,0
2018-11-29T14:41:17.376Z,0
2018-11-29T14:41:49.332Z,0
2018-11-29T14:42:21.296Z,0
2018-11-29T14:42:53.270Z,0
2018-11-29T14:43:25.250Z,0
2018-11-29T14:43:57.243Z,0
2018-11-29T14:44:29.287Z,0
2018-11-29T14:46:56.485Z,0
2018-11-29T14:47:28.455Z,0
2018-11-29T14:48:00.523Z,0
2018-11-29T14:48:32.497Z,0
2018-11-29T14:49:04.476Z,0
2018-11-29T14:49:36.456Z,0
2018-11-29T14:50:08.446Z,0
2018-11-29T14:50:40.543Z,0
2018-11-29T14:51:12.741Z,0
2018-11-29T14:51:49.679Z,0
2018-11-29T14:52:21.654Z,0
2018-11-29T14:52:53.664Z,0
2018-11-29T14:53:25.650Z,0
2018-11-29T14:53:57.630Z,0
2018-11-29T14:54:29.600Z,0
2018-11-29T14:55:01.579Z,0
2018-11-29T14:55:33.565Z,0
2018-11-29T14:56:05.606Z,0
2018-11-29T14:56:37.596Z,0
2018-11-29T14:57:09.593Z,0
2018-11-29T14:57:41.579Z,0
2018-11-29T14:58:13.550Z,0
2018-11-29T14:58:45.567Z,0
2018-11-29T14:59:17.577Z,0
2018-11-29T14:59:49.557Z,0
2018-11-29T15:00:21.526Z,0
2018-11-29T15:00:53.494Z,0
2018-11-29T15:01:25.485Z,0
2018-11-29T15:01:57.482Z,0
2018-11-29T15:02:29.480Z,0
2018-11-29T15:03:01.488Z,0
2018-11-29T15:03:35.269Z,0
2018-11-29T15:04:07.259Z,0
2018-11-29T15:04:39.250Z,0
2018-11-29T15:05:11.231Z,0
2018-11-29T15:05:43.220Z,0
2018-11-29T15:06:15.213Z,0
2018-11-29T15:06:47.192Z,0
2018-11-29T15:07:19.169Z,0
2018-11-29T15:07:51.159Z,0
2018-11-29T15:08:23.131Z,0
2018-11-29T15:08:55.085Z,0
2018-11-29T15:09:27.042Z,0
2018-11-29T15:09:59.032Z,0
2018-11-29T15:10:31.014Z,0
2018-11-29T15:11:02.986Z,0
2018-11-29T15:11:34.969Z,0
2018-11-29T15:12:06.935Z,0
2018-11-29T15:12:38.913Z,0
2018-11-29T15:13:10.882Z,0
2018-11-29T15:13:42.847Z,0
2018-11-29T15:14:19.659Z,0
2018-11-29T15:14:51.675Z,0
2018-11-29T15:15:23.640Z,0
2018-11-29T15:15:55.608Z,0
2018-11-29T15:16:27.574Z,0
2018-11-29T15:16:59.565Z,0
2018-11-29T15:17:31.530Z,0
2018-11-29T15:18:03.478Z,0
2018-11-29T15:18:35.443Z,0
2018-11-29T15:19:07.420Z,0
2018-11-29T15:19:39.408Z,0
2018-11-29T15:20:11.393Z,0
2018-11-29T15:20:43.394Z,0
2018-11-29T15:21:15.413Z,0
2018-11-29T15:21:47.412Z,0
2018-11-29T15:22:19.388Z,0
2018-11-29T15:22:51.382Z,0
2018-11-29T15:23:23.365Z,0
2018-11-29T15:23:55.341Z,0
2018-11-29T15:24:27.333Z,0
2018-11-29T15:24:59.302Z,0
2018-11-29T15:25:31.277Z,0
2018-11-29T15:26:03.274Z,0
2018-11-29T15:26:35.283Z,0
2018-11-29T15:27:07.258Z,0
2018-11-29T15:27:39.262Z,0
2018-11-29T15:28:11.242Z,0
2018-11-29T15:28:43.230Z,0
2018-11-29T15:29:15.201Z,0
2018-11-29T15:29:47.185Z,0
2018-11-29T15:30:19.149Z,0
2018-11-29T15:30:51.115Z,0
2018-11-29T15:31:23.111Z,0
2018-11-29T15:31:55.090Z,0
2018-11-29T15:32:27.091Z,0
2018-11-29T15:32:59.286Z,0
2018-11-29T15:33:31.248Z,0
2018-11-29T15:34:03.226Z,0
2018-11-29T15:34:35.226Z,0
2018-11-29T15:35:07.218Z,0
2018-11-29T15:35:39.169Z,0
2018-11-29T15:36:11.149Z,0
2018-11-29T15:36:44.009Z,0
2018-11-29T15:37:15.976Z,0
2018-11-29T15:37:47.965Z,0
2018-11-29T15:38:19.961Z,0
2018-11-29T15:38:51.951Z,0
2018-11-29T15:39:23.920Z,0
2018-11-29T15:39:55.900Z,0
2018-11-29T15:40:27.898Z,0
2018-11-29T15:40:59.923Z,0
2018-11-29T15:41:31.886Z,0
2018-11-29T15:42:03.848Z,0
2018-11-29T15:42:35.854Z,0
2018-11-29T15:43:07.820Z,0
2018-11-29T15:43:39.793Z,0
2018-11-29T15:44:11.748Z,0
2018-11-29T15:44:43.735Z,0
2018-11-29T15:45:15.795Z,0
2018-11-29T15:45:47.811Z,0
2018-11-29T15:46:19.764Z,0
2018-11-29T15:46:51.734Z,0
2018-11-29T15:47:23.733Z,0
2018-11-29T15:47:55.716Z,0
2018-11-29T15:48:27.706Z,0
2018-11-29T15:49:00.646Z,0
2018-11-29T15:49:32.629Z,0
2018-11-29T15:50:04.669Z,0
2018-11-29T15:50:36.679Z,0
2018-11-29T15:51:08.760Z,0
2018-11-29T15:51:40.712Z,0
2018-11-29T15:52:12.699Z,0
2018-11-29T15:52:44.677Z,0
2018-11-29T15:53:16.646Z,0
2018-11-29T15:53:48.644Z,0
2018-11-29T15:54:20.623Z,0
2018-11-29T15:54:52.601Z,0
2018-11-29T15:55:24.595Z,0
2018-11-29T15:55:56.581Z,0
2018-11-29T15:56:28.630Z,0
2018-11-29T15:57:00.593Z,0
2018-11-29T15:57:36.829Z,0
2018-11-29T15:58:08.811Z,0
2018-11-29T15:58:40.830Z,0
2018-11-29T15:59:12.830Z,0
2018-11-29T15:59:44.836Z,0
2018-11-29T16:00:16.811Z,0
2018-11-29T16:00:48.783Z,0
2018-11-29T16:01:20.752Z,0
2018-11-29T16:01:52.724Z,0
2018-11-29T16:02:24.695Z,0
2018-11-29T16:02:56.847Z,0
2018-11-29T16:03:28.824Z,0
2018-11-29T16:04:00.848Z,0
2018-11-29T16:04:32.816Z,0
2018-11-29T16:05:04.789Z,0
2018-11-29T16:05:36.743Z,0
2018-11-29T16:06:08.725Z,0
2018-11-29T16:06:40.715Z,0
2018-11-29T16:07:12.678Z,0
2018-11-29T16:07:44.682Z,0
2018-11-29T16:08:16.695Z,0
2018-11-29T16:08:48.723Z,0
2018-11-29T16:09:20.696Z,0
2018-11-29T16:09:52.648Z,0
2018-11-29T16:10:24.640Z,0
2018-11-29T16:10:56.609Z,0
2018-11-29T16:11:28.578Z,0
2018-11-29T16:12:00.562Z,0
2018-11-29T16:12:32.541Z,0
2018-11-29T16:13:05.744Z,0
2018-11-29T16:13:37.749Z,0
2018-11-29T16:14:09.710Z,0
2018-11-29T16:14:45.253Z,0
2018-11-29T16:15:17.239Z,0
2018-11-29T16:15:49.258Z,0
2018-11-29T16:16:21.232Z,0
2018-11-29T16:16:53.350Z,0
2018-11-29T16:17:25.347Z,0
2018-11-29T16:17:57.335Z,0
2018-11-29T16:18:29.332Z,0
2018-11-29T16:19:05.483Z,0
2018-11-29T16:19:37.473Z,0
2018-11-29T16:20:09.440Z,0
2018-11-29T16:20:41.415Z,0
2018-11-29T16:21:13.396Z,0
2018-11-29T16:21:45.382Z,0
2018-11-29T16:22:17.362Z,0
2018-11-29T16:22:49.335Z,0
2018-11-29T16:23:21.314Z,0
2018-11-29T16:23:53.288Z,0
2018-11-29T16:24:25.241Z,0
2018-11-29T16:24:57.211Z,0
2018-11-29T16:25:29.191Z,0
2018-11-29T16:26:01.174Z,0
2018-11-29T16:26:33.168Z,0
2018-11-29T16:27:05.215Z,0
2018-11-29T16:27:37.192Z,0
2018-11-29T16:28:09.177Z,0
2018-11-29T16:28:41.162Z,0
2018-11-29T16:29:13.163Z,0
2018-11-29T16:29:45.145Z,0
2018-11-29T16:30:17.123Z,0
2018-11-29T16:30:49.104Z,0
2018-11-29T16:31:21.067Z,0
2018-11-29T16:31:53.046Z,0
2018-11-29T16:32:24.999Z,0
2018-11-29T16:32:56.961Z,0
2018-11-29T16:33:28.925Z,0
2018-11-29T16:34:00.882Z,0
2018-11-29T16:34:32.871Z,0
2018-11-29T16:35:04.854Z,0
2018-11-29T16:35:36.839Z,0
2018-11-29T16:36:08.824Z,0
2018-11-29T16:36:40.793Z,0
2018-11-29T16:37:12.766Z,0
2018-11-29T16:37:44.747Z,0
2018-11-29T16:38:16.731Z,0
2018-11-29T16:38:48.719Z,0
2018-11-29T16:39:20.683Z,0
2018-11-29T16:39:52.651Z,0
2018-11-29T16:40:24.621Z,0
2018-11-29T16:40:56.619Z,0
2018-11-29T16:41:28.576Z,0
2018-11-29T16:42:00.681Z,0
2018-11-29T16:42:32.666Z,0
2018-11-29T16:43:04.643Z,0
2018-11-29T16:43:36.623Z,0
2018-11-29T16:44:08.598Z,0
2018-11-29T16:44:40.682Z,0
2018-11-29T16:45:12.663Z,0
2018-11-29T16:45:44.697Z,0
2018-11-29T16:46:16.665Z,0
2018-11-29T16:46:48.640Z,0
2018-11-29T16:47:20.605Z,0
2018-11-29T16:47:52.628Z,0
2018-11-29T16:48:24.593Z,0
2018-11-29T16:48:56.576Z,0
2018-11-29T16:49:28.542Z,0
2018-11-29T16:50:00.512Z,0
2018-11-29T16:50:32.506Z,0
2018-11-29T16:51:04.483Z,0
2018-11-29T16:51:36.477Z,0
2018-11-29T16:52:08.460Z,0
2018-11-29T16:52:40.486Z,0
2018-11-29T16:53:12.462Z,0
2018-11-29T16:53:44.444Z,0
2018-11-29T16:54:16.468Z,0
2018-11-29T16:54:48.450Z,0
2018-11-29T16:55:20.397Z,0
2018-11-29T16:55:52.391Z,0
2018-11-29T16:56:24.390Z,0
2018-11-29T16:56:56.367Z,0
2018-11-29T16:57:28.440Z,0
2018-11-29T16:58:00.428Z,0
2018-11-29T16:58:32.410Z,0
2018-11-29T16:59:04.395Z,0
2018-11-29T16:59:36.364Z,0
2018-11-29T17:00:08.376Z,0
2018-11-29T17:00:40.467Z,0
2018-11-29T17:01:12.453Z,0
2018-11-29T17:01:44.502Z,0
2018-11-29T17:02:16.470Z,0
2018-11-29T17:02:48.469Z,0
2018-11-29T17:03:20.449Z,0
2018-11-29T17:03:52.416Z,0